Latest Weather Observations for Wagga Wagga

IDN60801

Issued at 3:05 pm EDT Thursday 27 November 2014 (issued every 30 minutes, with the page automatically refreshed every 10 minutes)

About weather observations | Map of weather stations | Latest weather observations for NSW | Other Formats
Station Details ID: 072150 Name: WAGGA WAGGA AMO Lat: -35.16 Lon: 147.46 Height: 212.0 m
Data from the previous 72 hours. | See also: Recent months at Wagga Wagga
Date/Time
EDT
Temp
°C
App
Temp
°C
Dew
Point
Rel
Hum
%
Delta-T
°C
Wind Press
QNH
hPa
Press
MSL
hPa
Rain
since 9 am
mm
Dir
 
Spd
km/h
Gust
km/h
Spd
kts
Gust
kts
27/03:00pm 27.5 24.9 4.1 22 11.9 S 7 13 4 7 1018.1 1017.6 0.0
27/02:00pm 25.8 22.7 3.8 24 11.0 WSW 9 19 5 10 1018.7 1018.2 0.0
27/01:30pm 26.4 23.5 6.5 28 10.5 SE 11 19 6 10 1018.9 1018.4 0.0
27/01:00pm 25.0 22.1 6.4 30 9.7 SSE 11 19 6 10 1019.4 1018.8 0.0
27/12:30pm 25.2 22.3 8.1 33 9.2 NNE 13 24 7 13 1019.8 1019.3 0.0
27/12:00pm 25.1 23.0 9.7 37 8.5 N 11 17 6 9 1020.1 1019.6 0.0
27/11:30am 25.1 23.8 10.0 38 8.4 NNW 7 13 4 7 1020.3 1019.8 0.0
27/11:00am 23.7 21.5 10.8 44 7.2 NE 13 20 7 11 1020.6 1020.1 0.0
27/10:30am 23.1 21.8 11.2 47 6.7 ENE 9 17 5 9 1020.8 1020.3 0.0
27/10:00am 22.1 20.0 11.2 50 6.1 ENE 13 20 7 11 1020.8 1020.3 0.0
27/09:30am 21.5 18.2 11.5 53 5.6 NE 20 26 11 14 1021.0 1020.5 0.0
27/09:00am 20.4 17.0 11.4 56 5.0 ENE 20 28 11 15 1021.0 1020.5 0.0
27/08:30am 19.2 16.5 11.6 61 4.2 E 17 20 9 11 1020.9 1020.4 0.0
27/08:00am 17.9 15.7 10.7 62 3.9 E 13 15 7 8 1020.8 1020.3 0.0
27/07:30am 16.6 15.7 10.8 68 3.1 E 6 7 3 4 1020.5 1020.0 0.0
27/07:00am 14.0 14.1 10.0 77 2.1 CALM 0 0 0 0 1020.3 1019.8 0.0
27/06:30am 12.5 12.4 9.6 82 1.5 CALM 0 0 0 0 1019.9 1019.4 0.0
27/06:00am 12.5 10.5 8.5 76 2.0 ESE 9 9 5 5 1019.6 1019.0 0.0
27/05:30am 12.9 10.4 8.1 72 2.4 ESE 11 11 6 6 1019.2 1018.6 0.0
27/05:00am 12.2 9.3 8.0 75 2.1 SE 13 13 7 7 1018.8 1018.3 0.0
27/04:30am 13.4 11.1 7.5 67 2.9 SE 9 11 5 6 1018.5 1018.0 0.0
27/04:00am 13.4 11.2 8.0 70 2.7 E 9 9 5 5 1018.2 1017.7 0.0
27/03:30am 14.0 11.4 7.8 66 3.1 ENE 11 13 6 7 1018.0 1017.5 0.0
27/03:00am 13.7 12.1 8.6 71 2.6 S 7 9 4 5 1018.1 1017.6 0.0
27/02:30am 14.6 12.9 8.3 66 3.2 E 7 9 4 5 1018.3 1017.8 0.0
27/02:00am 14.4 12.2 8.0 65 3.2 ENE 9 11 5 6 1018.4 1017.9 0.0
27/01:30am 14.9 14.6 8.6 66 3.2 CALM 0 0 0 0 1018.4 1017.9 0.0
27/01:00am 15.2 15.0 9.2 67 3.1 CALM 0 0 0 0 1018.6 1018.1 0.0
27/12:30am 16.7 15.1 8.6 59 4.2 S 7 11 4 6 1018.7 1018.2 0.0
27/12:00am 16.3 14.0 9.0 62 3.8 SSW 11 13 6 7 1018.7 1018.2 0.0
 
Date/Time
EDT
Temp
°C
App
Temp
°C
Dew
Point
Rel
Hum
%
Delta-T
°C
Wind Press
QNH
hPa
Press
MSL
hPa
Rain
since 9 am
mm
Dir
 
Spd
km/h
Gust
km/h
Spd
kts
Gust
kts
26/11:30pm 16.9 14.0 8.1 56 4.5 SSW 13 15 7 8 1018.6 1018.1 0.0
26/11:00pm 16.5 13.6 6.4 51 5.0 WSW 11 17 6 9 1018.5 1018.0 0.0
26/10:30pm 16.9 14.7 6.1 49 5.3 SSW 7 7 4 4 1018.5 1018.0 0.0
26/10:00pm 16.0 13.6 7.0 55 4.5 SSW 9 11 5 6 1018.2 1017.7 0.0
26/09:30pm 16.8 14.0 6.8 51 5.0 SW 11 11 6 6 1018.0 1017.5 0.0
26/09:00pm 17.7 14.6 5.4 44 6.0 SSW 11 13 6 7 1017.8 1017.3 0.0
26/08:30pm 19.4 15.9 3.7 35 7.5 SW 11 13 6 7 1017.6 1017.1 0.0
26/08:00pm 21.6 17.1 2.0 27 9.2 SW 15 19 8 10 1017.5 1017.0 0.0
26/07:30pm 23.5 17.8 0.7 22 10.6 SSW 20 26 11 14 1017.3 1016.8 0.0
26/07:00pm 24.5 19.0 0.5 20 11.2 SW 19 26 10 14 1016.8 1016.3 0.0
26/06:30pm 24.9 17.9 -0.2 19 11.6 SSW 26 35 14 19 1016.4 1015.9 0.0
26/06:00pm 25.5 19.5 0.8 20 11.7 SW 22 30 12 16 1016.0 1015.5 0.0
26/05:30pm 25.9 19.9 0.9 19 11.9 SSW 22 33 12 18 1016.0 1015.5 0.0
26/05:00pm 26.1 18.8 0.1 18 12.2 WSW 28 33 15 18 1016.1 1015.6 0.0
26/04:30pm 26.1 20.0 0.1 18 12.2 WSW 22 33 12 18 1016.3 1015.8 0.0
26/04:00pm 26.7 20.8 -0.6 16 12.7 SSW 20 30 11 16 1016.5 1016.0 0.0
26/03:30pm 26.3 20.5 0.1 18 12.3 WSW 20 39 11 21 1016.7 1016.2 0.0
26/03:00pm 26.3 21.6 0.9 19 12.1 SW 15 28 8 15 1017.0 1016.5 0.0
26/02:30pm 25.5 20.3 0.3 19 11.8 WSW 17 30 9 16 1017.4 1016.9 0.0
26/02:00pm 25.3 18.4 -0.1 19 11.8 WSW 26 37 14 20 1017.7 1017.2 0.0
26/01:30pm 24.9 19.8 0.6 20 11.4 W 17 26 9 14 1017.9 1017.4 0.0
26/01:00pm 24.3 19.4 2.3 23 10.6 WSW 17 28 9 15 1018.3 1017.8 0.0
26/12:30pm 24.0 18.1 1.7 23 10.6 W 22 30 12 16 1018.7 1018.2 0.0
26/12:00pm 23.2 18.0 2.6 26 9.9 W 19 28 10 15 1019.1 1018.5 0.0
26/11:30am 23.0 17.1 1.9 25 10.0 W 22 35 12 19 1019.4 1018.8 0.0
26/11:00am 22.3 18.4 3.6 29 9.1 SW 13 19 7 10 1019.6 1019.0 0.0
26/10:30am 21.0 18.0 3.9 32 8.3 NNW 9 17 5 9 1019.7 1019.2 0.0
26/10:00am 19.7 17.8 6.9 43 6.5 ENE 6 9 3 5 1019.9 1019.4 0.0
26/09:30am 18.3 16.5 7.8 50 5.4 NNE 7 11 4 6 1020.1 1019.6 0.0
26/09:00am 17.0 14.8 8.0 55 4.6 E 9 15 5 8 1020.2 1019.7 0.0
26/08:30am 15.4 12.9 8.1 61 3.7 E 11 13 6 7 1020.2 1019.7 0.0
26/08:00am 14.4 12.2 8.0 65 3.2 E 9 11 5 6 1020.2 1019.7 0.0
26/07:30am 13.8 11.6 7.8 67 3.0 E 9 11 5 6 1020.0 1019.5 0.0
26/07:00am 12.3 10.6 7.4 72 2.4 SE 6 7 3 4 1019.8 1019.3 0.0
26/06:30am 10.6 8.6 7.3 80 1.6 ESE 7 9 4 5 1019.7 1019.2 0.0
26/06:00am 8.7 7.0 7.4 91 0.6 NNE 6 9 3 5 1019.4 1018.8 0.0
26/05:30am 8.2 7.5 7.1 93 0.5 CALM 0 0 0 0 1018.9 1018.4 0.0
26/05:00am 8.6 8.1 7.8 95 0.4 CALM 0 4 0 2 1018.6 1018.1 0.0
26/04:30am 9.7 7.9 7.2 84 1.2 ENE 6 7 3 4 1018.4 1017.9 0.0
26/04:00am 10.1 7.9 6.3 77 1.8 SE 7 7 4 4 1018.4 1017.9 0.0
26/03:48am 10.3 8.3 6.3 76 1.9 SSE 6 7 3 4 1018.3 1017.8 0.0
26/03:30am 9.8 9.0 6.6 80 1.5 CALM 0 0 0 0 1018.3 1017.8 0.0
26/03:29am 10.0 9.2 6.6 79 1.6 CALM 0 0 0 0 1018.3 1017.8 0.0
26/03:00am 10.6 8.4 6.4 75 2.0 S 7 9 4 5 1018.3 1017.8 0.0
26/02:30am 10.8 7.9 6.6 75 2.0 ESE 11 13 6 7 1018.4 1017.9 0.0
26/02:00am 11.5 10.9 7.4 76 2.0 CALM 0 0 0 0 1018.6 1018.1 0.0
26/01:30am 11.8 10.0 7.3 74 2.2 ENE 6 7 3 4 1019.1 1018.5 0.0
26/01:00am 12.4 10.5 6.8 68 2.7 ESE 6 7 3 4 1019.4 1018.8 0.0
26/12:30am 13.2 12.5 6.8 65 3.1 CALM 0 0 0 0 1019.7 1019.2 0.0
26/12:00am 13.5 12.8 6.9 64 3.2 CALM 0 0 0 0 1019.9 1019.4 0.0
 
Date/Time
EDT
Temp
°C
App
Temp
°C
Dew
Point
Rel
Hum
%
Delta-T
°C
Wind Press
QNH
hPa
Press
MSL
hPa
Rain
since 9 am
mm
Dir
 
Spd
km/h
Gust
km/h
Spd
kts
Gust
kts
25/11:30pm 13.6 12.5 6.8 63 3.3 SW 2 7 1 4 1019.9 1019.4 0.0
25/11:00pm 13.1 11.3 8.1 71 2.5 SW 7 9 4 5 1019.9 1019.4 0.0
25/10:30pm 13.9 11.8 8.1 68 2.9 SW 9 9 5 5 1019.9 1019.4 0.0
25/10:00pm 13.8 11.7 8.2 69 2.8 SW 9 11 5 6 1019.8 1019.3 0.0
25/09:30pm 14.4 12.1 7.6 63 3.4 SW 9 9 5 5 1019.6 1019.0 0.0
25/09:00pm 15.5 13.1 7.0 57 4.2 SW 9 9 5 5 1019.2 1018.6 0.0
25/08:30pm 16.6 13.7 4.9 46 5.6 SSW 9 11 5 6 1018.8 1018.3 0.0
25/08:00pm 18.2 13.9 3.0 36 7.1 SSW 15 17 8 9 1018.6 1018.1 0.0
25/07:30pm 20.2 15.0 2.2 30 8.4 SW 19 26 10 14 1018.4 1017.9 0.0
25/07:00pm 21.1 14.8 1.8 28 9.0 SSW 24 30 13 16 1018.1 1017.6 0.0
25/06:30pm 21.7 16.1 1.2 25 9.5 SW 20 26 11 14 1017.9 1017.4 0.0
25/06:00pm 22.2 16.2 1.1 24 9.8 SW 22 35 12 19 1017.8 1017.3 0.0
25/05:30pm 22.4 17.0 1.1 24 9.9 SW 19 28 10 15 1017.8 1017.3 0.0
25/05:00pm 23.2 17.7 1.6 24 10.2 SW 20 28 11 15 1017.8 1017.3 0.0
25/04:30pm 22.5 16.7 -0.2 22 10.3 SSW 20 33 11 18 1017.9 1017.4 0.0
25/04:00pm 22.8 16.9 1.9 25 9.9 SW 22 35 12 19 1018.0 1017.5 0.0
25/03:30pm 21.8 15.6 2.4 28 9.2 W 24 35 13 19 1018.1 1017.6 0.0
25/03:00pm 21.6 16.1 1.7 27 9.3 WSW 20 32 11 17 1018.1 1017.6 0.0
25/02:30pm 21.1 16.3 2.5 29 8.8 W 17 22 9 12 1018.2 1017.7 0.0
25/02:00pm 20.9 15.0 1.8 28 8.9 SW 22 33 12 18 1018.3 1017.8 0.0
25/01:30pm 20.3 14.1 2.4 30 8.4 WSW 24 33 13 18 1018.4 1017.9 0.0
25/01:00pm 20.1 13.0 1.3 28 8.6 WSW 28 35 15 19 1018.7 1018.2 0.0
25/12:30pm 19.5 13.3 2.0 31 8.1 WSW 24 33 13 18 1018.9 1018.4 0.0
25/12:00pm 18.8 13.0 2.1 32 7.7 SW 22 33 12 18 1019.1 1018.5 0.0
25/11:30am 18.2 12.4 2.3 34 7.3 SW 22 37 12 20 1018.9 1018.4 0.0
25/11:00am 17.4 11.2 2.3 36 6.9 SW 24 33 13 18 1019.2 1018.6 0.0
25/10:30am 17.1 10.0 1.5 35 7.0 SW 28 37 15 20 1019.2 1018.6 0.0
25/10:00am 17.1 10.6 2.5 37 6.7 SW 26 37 14 20 1018.9 1018.4 0.0
25/09:30am 16.3 9.5 3.3 42 6.0 SW 28 33 15 18 1018.8 1018.3 0.0
25/09:00am 15.3 9.4 3.9 46 5.3 WSW 24 32 13 17 1018.6 1018.1 12.2
25/08:30am 14.1 7.8 3.9 50 4.7 SW 26 32 14 17 1018.2 1017.7 12.2
25/08:00am 13.7 7.3 5.0 55 4.1 SW 28 39 15 21 1017.7 1017.2 12.2
25/07:30am 12.9 6.9 5.5 60 3.5 SW 26 33 14 18 1017.3 1016.8 12.2
25/07:00am 11.8 5.9 5.9 67 2.8 SW 26 33 14 18 1016.7 1016.2 12.2
25/06:30am 11.2 7.0 5.6 68 2.6 SW 17 26 9 14 1016.5 1016.0 12.2
25/06:00am 11.0 6.3 5.9 71 2.4 SW 20 32 11 17 1015.8 1015.3 12.2
25/05:30am 11.5 7.0 6.0 69 2.6 SW 19 26 10 14 1015.3 1014.7 12.2
25/05:00am 12.2 7.0 7.3 72 2.4 WSW 24 37 13 20 1014.6 1014.0 12.2
25/04:30am 12.7 7.6 7.6 71 2.5 SW 24 35 13 19 1014.4 1013.8 12.2
25/04:00am 13.4 7.6 8.0 70 2.7 SW 28 41 15 22 1013.5 1013.0 12.2
25/03:30am 14.2 10.0 9.6 74 2.4 WSW 22 37 12 20 1012.8 1012.3 12.2
25/03:00am 15.0 10.3 11.9 82 1.7 WSW 28 39 15 21 1012.5 1012.0 12.2
25/02:30am 15.6 11.4 12.3 81 1.8 WSW 26 35 14 19 1012.3 1011.8 12.2
25/02:00am 15.8 11.0 12.9 83 1.6 WSW 30 39 16 21 1012.1 1011.6 12.2
25/01:30am 17.3 13.0 14.4 83 1.7 WSW 30 37 16 20 1011.3 1010.7 12.2
25/01:13am 18.8 15.7 16.5 86 1.4 WSW 28 41 15 22 1011.2 1010.6 12.2
25/01:11am 18.8 15.1 17.0 89 1.1 WSW 32 41 17 22 1011.2 1010.6 12.2
25/01:00am 18.5 17.9 17.5 94 0.6 W 17 22 9 12 1011.2 1010.6 12.2
25/12:30am 18.3 19.3 17.7 96 0.4 W 9 13 5 7 1011.3 1010.7 12.2
25/12:24am 18.3 19.3 17.7 96 0.4 W 9 13 5 7 1011.3 1010.7 12.2
25/12:12am 18.3 19.3 17.7 96 0.4 W 9 11 5 6 1011.2 1010.6 12.2
25/12:00am 18.4 19.7 17.6 95 0.5 W 7 9 4 5 1011.1 1010.5 12.2
 
Date/Time
EDT
Temp
°C
App
Temp
°C
Dew
Point
Rel
Hum
%
Delta-T
°C
Wind Press
QNH
hPa
Press
MSL
hPa
Rain
since 9 am
mm
Dir
 
Spd
km/h
Gust
km/h
Spd
kts
Gust
kts
24/11:57pm 18.4 20.0 17.8 96 0.4 W 6 9 3 5 1011.1 1010.5 12.2
24/11:30pm 18.3 19.8 17.7 96 0.4 W 6 7 3 4 1011.2 1010.6 12.2
24/11:00pm 18.4 20.0 17.8 96 0.4 E 6 7 3 4 1011.3 1010.7 12.2
24/10:30pm 18.2 19.4 17.4 95 0.5 NNE 7 9 4 5 1010.6 1010.0 12.2
24/10:00pm 17.9 17.9 17.2 96 0.4 N 13 17 7 9 1010.8 1010.2 12.0
24/09:30pm 17.9 18.0 17.4 97 0.3 NNE 13 19 7 10 1010.9 1010.3 12.0
24/09:11pm 18.0 18.4 17.3 96 0.4 N 11 13 6 7 1011.0 1010.4 11.6
24/09:00pm 18.3 18.3 17.2 93 0.7 W 13 20 7 11 1011.0 1010.4 11.2
24/08:38pm 19.2 15.0 17.2 88 1.2 WSW 35 61 19 33 1011.9 1011.4 6.0
24/08:34pm 21.6 18.5 16.5 73 3.1 WSW 28 46 15 25 1011.6 1011.1 4.6
24/08:30pm 22.1 22.7 17.8 76 2.7 SSE 11 13 6 7 1010.0 1009.4 4.6
24/08:00pm 22.2 21.7 19.2 83 1.9 SW 20 24 11 13 1009.4 1008.8 4.6
24/07:30pm 22.4 23.6 19.0 81 2.2 ENE 11 15 6 8 1008.0 1007.5 4.6
24/07:00pm 22.8 23.4 18.7 77 2.6 ENE 13 17 7 9 1007.7 1007.2 4.6
24/06:30pm 23.0 23.5 18.4 75 2.9 ENE 13 17 7 9 1007.3 1006.7 4.6
24/06:00pm 22.6 23.1 18.3 76 2.7 ENE 13 19 7 10 1007.3 1006.7 4.6
24/05:30pm 22.7 22.9 18.6 77 2.6 E 15 20 8 11 1007.4 1006.8 4.6
24/05:00pm 22.4 21.6 18.1 76 2.7 ENE 19 26 10 14 1007.6 1007.1 4.6
24/04:30pm 22.6 22.2 19.3 81 2.1 ENE 20 26 11 14 1008.2 1007.7 4.6
24/04:00pm 22.2 22.4 19.4 84 1.8 ENE 17 24 9 13 1009.5 1008.9 4.6
24/03:30pm 21.4 20.7 19.4 88 1.3 ENE 22 32 12 17 1009.4 1008.8 4.6

Other Formats:

Comma delimited format used in spreadsheet applications
http://www.bom.gov.au/fwo/IDN60801/IDN60801.94910.axf

JavaScript Object Notation format (JSON) in row-major order
http://www.bom.gov.au/fwo/IDN60801/IDN60801.94910.json